createdAt,value
2019-02-07T00:02:05.188Z,11.17
2019-02-07T00:04:37.192Z,12.37
2019-02-07T00:07:09.107Z,12.87
2019-02-07T00:09:41.079Z,9.93
2019-02-07T00:12:13.135Z,11.77
2019-02-07T00:14:45.100Z,11.43
2019-02-07T00:17:20.004Z,9.87
2019-02-07T00:19:52.377Z,11.37
2019-02-07T00:22:24.342Z,12.67
2019-02-07T00:25:01.234Z,11.80
2019-02-07T00:27:33.277Z,11.27
2019-02-07T00:30:07.488Z,9.80
2019-02-07T00:32:39.382Z,9.77
2019-02-07T00:35:11.975Z,9.83
2019-02-07T00:37:43.912Z,11.30
2019-02-07T00:40:17.039Z,9.37
2019-02-07T00:42:49.651Z,12.70
2019-02-07T00:45:21.895Z,12.13
2019-02-07T00:47:53.813Z,9.60
2019-02-07T00:50:25.782Z,11.13
2019-02-07T00:52:59.093Z,11.90
2019-02-07T00:55:31.201Z,11.63
2019-02-07T00:58:03.547Z,10.37
2019-02-07T01:00:35.944Z,13.93
2019-02-07T01:03:09.371Z,10.43
2019-02-07T01:05:41.753Z,10.30
2019-02-07T01:08:13.932Z,13.83
2019-02-07T01:10:46.088Z,9.57
2019-02-07T01:13:18.117Z,12.23
2019-02-07T01:15:50.039Z,10.63
2019-02-07T01:18:22.629Z,9.20
2019-02-07T01:20:54.493Z,10.87
2019-02-07T01:23:26.555Z,11.00
2019-02-07T01:26:00.443Z,12.17
2019-02-07T01:28:32.708Z,11.00
2019-02-07T01:31:04.833Z,11.73
2019-02-07T01:33:37.409Z,12.17
2019-02-07T01:36:09.602Z,11.17
2019-02-07T01:38:41.661Z,11.13
2019-02-07T01:41:13.644Z,11.80
2019-02-07T01:43:45.912Z,12.63
2019-02-07T01:46:18.073Z,11.63
2019-02-07T01:48:50.057Z,10.73
2019-02-07T01:51:21.889Z,9.53
2019-02-07T01:53:53.879Z,11.20
2019-02-07T01:56:25.747Z,12.00
2019-02-07T01:58:57.685Z,10.50
2019-02-07T02:01:33.301Z,10.87
2019-02-07T02:04:05.429Z,10.00
2019-02-07T02:06:37.276Z,11.83
2019-02-07T02:09:10.887Z,12.10
2019-02-07T02:11:42.959Z,11.43
2019-02-07T02:14:15.346Z,13.30
2019-02-07T02:16:47.811Z,12.13
2019-02-07T02:19:19.988Z,9.27
2019-02-07T02:21:52.036Z,9.00
2019-02-07T02:24:24.175Z,10.70
2019-02-07T02:26:56.418Z,10.87
2019-02-07T02:29:28.415Z,10.13
2019-02-07T02:32:01.194Z,10.87
2019-02-07T02:34:33.390Z,10.23
2019-02-07T02:37:05.410Z,10.07
2019-02-07T02:39:37.241Z,10.90
2019-02-07T02:42:09.521Z,11.83
2019-02-07T02:44:41.546Z,11.20
2019-02-07T02:47:13.551Z,11.77
2019-02-07T02:49:45.522Z,11.83
2019-02-07T02:52:17.480Z,11.20
2019-02-07T02:54:52.865Z,11.10
2019-02-07T02:57:24.956Z,11.97
2019-02-07T02:59:56.966Z,9.77
2019-02-07T03:02:53.939Z,10.87
2019-02-07T03:05:43.629Z,10.90
2019-02-07T03:08:37.147Z,9.83
2019-02-07T03:11:25.842Z,10.40
2019-02-07T03:14:20.133Z,11.43
2019-02-07T03:17:10.854Z,12.57
2019-02-07T03:20:01.820Z,11.50
2019-02-07T03:22:52.571Z,12.57
2019-02-07T03:25:49.393Z,11.83
2019-02-07T03:28:38.845Z,10.43
2019-02-07T03:31:44.741Z,10.53
2019-02-07T03:34:38.656Z,10.80
2019-02-07T03:37:32.722Z,10.77
2019-02-07T03:40:25.404Z,9.60
2019-02-07T03:43:19.194Z,12.47
2019-02-07T03:46:22.454Z,8.90
2019-02-07T03:49:16.591Z,10.93
2019-02-07T03:51:56.740Z,9.73
2019-02-07T03:54:38.641Z,9.60
2019-02-07T03:57:36.245Z,10.07
2019-02-07T04:00:32.284Z,10.20
2019-02-07T04:03:21.854Z,9.27
2019-02-07T04:06:11.556Z,12.23
2019-02-07T04:09:20.628Z,10.33
2019-02-07T04:12:15.618Z,10.83
2019-02-07T04:15:05.209Z,8.00
2019-02-07T04:17:59.010Z,9.53
2019-02-07T04:20:48.545Z,9.70
2019-02-07T04:23:38.524Z,10.13
2019-02-07T04:26:29.265Z,10.03
2019-02-07T04:29:39.139Z,9.33
2019-02-07T04:32:37.040Z,9.43
2019-02-07T04:35:31.156Z,11.00
2019-02-07T04:38:14.485Z,10.20
2019-02-07T04:41:05.425Z,8.43
2019-02-07T04:43:55.412Z,10.30
2019-02-07T04:46:42.983Z,9.80
2019-02-07T04:49:37.149Z,9.23
2019-02-07T04:52:28.302Z,8.57
2019-02-07T04:55:19.019Z,8.03
2019-02-07T04:58:12.926Z,9.67
2019-02-07T05:01:04.370Z,9.83
2019-02-07T05:03:55.113Z,11.00
2019-02-07T05:06:44.547Z,10.27
2019-02-07T05:09:34.255Z,8.80
2019-02-07T05:12:25.102Z,10.70
2019-02-07T05:15:28.291Z,8.73
2019-02-07T05:18:10.229Z,8.73
2019-02-07T05:20:57.199Z,8.80
2019-02-07T05:23:48.062Z,9.70
2019-02-07T05:26:26.704Z,9.50
2019-02-07T05:29:17.443Z,8.17
2019-02-07T05:31:59.136Z,8.23
2019-02-07T05:34:45.927Z,8.60
2019-02-07T05:37:31.791Z,10.33
2019-02-07T05:40:22.273Z,7.87
2019-02-07T05:43:19.060Z,8.17
2019-02-07T05:46:17.522Z,8.43
2019-02-07T05:49:08.613Z,9.80
2019-02-07T05:52:15.317Z,8.07
2019-02-07T05:55:04.700Z,10.77
2019-02-07T05:57:55.517Z,8.30
2019-02-07T06:00:49.063Z,10.57
2019-02-07T06:03:34.713Z,9.10
2019-02-07T06:06:21.461Z,8.50
2019-02-07T06:09:11.293Z,9.90
2019-02-07T06:11:59.637Z,8.80
2019-02-07T06:14:49.135Z,10.13
2019-02-07T06:17:38.720Z,10.23
2019-02-07T06:20:35.724Z,9.73
2019-02-07T06:23:41.975Z,10.37
2019-02-07T06:26:31.495Z,10.50
2019-02-07T06:29:18.893Z,9.40
2019-02-07T06:32:16.052Z,8.93
2019-02-07T06:35:05.316Z,9.47
2019-02-07T06:38:05.403Z,9.87
2019-02-07T06:41:14.164Z,9.87
2019-02-07T06:44:16.939Z,8.97
2019-02-07T06:47:13.957Z,7.37
2019-02-07T06:50:04.708Z,10.27
2019-02-07T06:52:54.833Z,9.67
2019-02-07T06:55:52.074Z,8.60
2019-02-07T06:58:42.939Z,6.93
2019-02-07T07:01:25.187Z,7.20
2019-02-07T07:04:25.015Z,9.10
2019-02-07T07:07:18.528Z,8.87
2019-02-07T07:10:09.024Z,8.67
2019-02-07T07:12:58.531Z,8.03
2019-02-07T07:16:07.684Z,10.67
2019-02-07T07:18:56.780Z,8.73
2019-02-07T07:21:51.864Z,10.10
2019-02-07T07:24:57.947Z,9.53
2019-02-07T07:28:00.980Z,9.43
2019-02-07T07:30:51.971Z,8.23
2019-02-07T07:33:34.682Z,8.43
2019-02-07T07:36:24.540Z,7.13
2019-02-07T07:39:15.451Z,9.40
2019-02-07T07:42:05.536Z,10.00
2019-02-07T07:44:59.365Z,11.30
2019-02-07T07:47:46.791Z,7.70
2019-02-07T07:50:40.594Z,10.17
2019-02-07T07:53:43.395Z,8.50
2019-02-07T07:56:23.452Z,9.20
2019-02-07T07:59:14.634Z,7.93
2019-02-07T08:02:04.140Z,8.87
2019-02-07T08:04:54.913Z,9.87
2019-02-07T08:08:13.348Z,8.20
2019-02-07T08:11:06.842Z,7.80
2019-02-07T08:13:55.259Z,8.87
2019-02-07T08:16:51.864Z,8.70
2019-02-07T08:19:45.520Z,9.87
2019-02-07T08:22:35.321Z,7.20
2019-02-07T08:25:27.144Z,9.60
2019-02-07T08:28:30.248Z,6.20
2019-02-07T08:31:33.276Z,6.90
2019-02-07T08:34:33.284Z,7.80
2019-02-07T08:37:20.603Z,7.20
2019-02-07T08:40:11.356Z,7.20
2019-02-07T08:42:59.567Z,7.87
2019-02-07T08:45:58.474Z,6.23
2019-02-07T08:48:51.958Z,5.97
2019-02-07T08:51:51.980Z,8.80
2019-02-07T08:54:41.163Z,6.80
2019-02-07T08:57:34.930Z,6.87
2019-02-07T09:00:49.796Z,6.20
2019-02-07T09:03:50.455Z,5.93
2019-02-07T09:06:41.801Z,5.53
2019-02-07T09:09:25.307Z,5.73
2019-02-07T09:12:18.626Z,6.50
2019-02-07T09:15:16.825Z,5.60
2019-02-07T09:18:34.767Z,7.50
2019-02-07T09:21:24.794Z,6.00
2019-02-07T09:24:15.733Z,5.00
2019-02-07T09:27:15.839Z,4.00
2019-02-07T09:30:05.096Z,5.40
2019-02-07T09:32:58.773Z,3.73
2019-02-07T09:36:05.568Z,4.73
2019-02-07T09:39:08.344Z,5.50
2019-02-07T09:41:59.093Z,6.67
2019-02-07T09:45:02.212Z,6.33
2019-02-07T09:47:55.797Z,8.17
2019-02-07T09:50:46.512Z,9.93
2019-02-07T09:53:43.240Z,10.50
2019-02-07T09:56:43.443Z,12.77
2019-02-07T09:59:37.194Z,10.87
2019-02-07T10:02:28.157Z,12.00
2019-02-07T10:05:06.684Z,11.67
2019-02-07T10:08:03.459Z,12.30
2019-02-07T10:10:53.275Z,11.07
2019-02-07T10:13:46.669Z,10.47
2019-02-07T10:16:34.023Z,13.20
2019-02-07T10:19:25.117Z,12.23
2019-02-07T10:22:15.946Z,10.77
2019-02-07T10:25:11.370Z,8.93
2019-02-07T10:28:00.805Z,10.17
2019-02-07T10:30:51.772Z,7.37
2019-02-07T10:33:42.529Z,13.30
2019-02-07T10:36:36.907Z,9.53
2019-02-07T10:39:38.729Z,8.87
2019-02-07T10:42:24.997Z,6.00
2019-02-07T10:45:16.543Z,8.43
2019-02-07T10:48:18.007Z,11.70
2019-02-07T10:51:05.464Z,9.70
2019-02-07T10:53:47.741Z,9.73
2019-02-07T10:56:36.984Z,8.87
2019-02-07T10:59:26.448Z,10.77
2019-02-07T11:02:16.102Z,10.63
2019-02-07T11:05:08.271Z,11.87
2019-02-07T11:08:08.282Z,8.80
2019-02-07T11:10:59.284Z,12.87
2019-02-07T11:13:43.516Z,9.80
2019-02-07T11:16:37.409Z,13.23
2019-02-07T11:19:35.211Z,11.90
2019-02-07T11:22:33.594Z,13.77
2019-02-07T11:25:33.488Z,9.03
2019-02-07T11:28:24.563Z,9.17
2019-02-07T11:31:18.301Z,11.03
2019-02-07T11:34:07.518Z,9.70
2019-02-07T11:36:57.137Z,8.50
2019-02-07T11:39:53.867Z,9.50
2019-02-07T11:42:57.870Z,8.80
2019-02-07T11:45:48.722Z,9.67
2019-02-07T11:48:49.387Z,12.13
2019-02-07T11:51:39.297Z,9.93
2019-02-07T11:54:28.890Z,9.73
2019-02-07T11:57:22.667Z,7.87
2019-02-07T12:00:12.560Z,8.67
2019-02-07T12:03:12.363Z,12.87
2019-02-07T12:06:12.509Z,9.53
2019-02-07T12:09:00.243Z,8.33
2019-02-07T12:11:51.188Z,8.23
2019-02-07T12:14:39.791Z,9.40
2019-02-07T12:17:36.666Z,9.50
2019-02-07T12:20:31.302Z,10.97
2019-02-07T12:23:40.491Z,7.47
2019-02-07T12:26:29.910Z,8.07
2019-02-07T12:29:20.626Z,11.03
2019-02-07T12:32:11.418Z,8.80
2019-02-07T12:34:52.393Z,7.80
2019-02-07T12:37:33.877Z,9.27
2019-02-07T12:40:23.466Z,9.90
2019-02-07T12:43:14.165Z,7.63
2019-02-07T12:46:11.110Z,6.07
2019-02-07T12:49:08.007Z,10.10
2019-02-07T12:52:17.111Z,8.67
2019-02-07T12:55:11.949Z,6.57
2019-02-07T12:58:11.929Z,7.63
2019-02-07T13:01:01.619Z,6.93
2019-02-07T13:03:52.388Z,5.13
2019-02-07T13:06:35.461Z,5.70
2019-02-07T13:09:40.577Z,7.83
2019-02-07T13:12:31.809Z,7.23
2019-02-07T13:15:27.633Z,5.90
2019-02-07T13:18:12.800Z,7.93
2019-02-07T13:21:15.352Z,10.13
2019-02-07T13:24:06.296Z,8.07
2019-02-07T13:27:01.385Z,7.50
2019-02-07T13:29:48.076Z,4.87
2019-02-07T13:32:37.431Z,8.17
2019-02-07T13:35:47.344Z,6.93
2019-02-07T13:38:43.464Z,9.15
2019-02-07T13:41:34.648Z,5.47
2019-02-07T13:44:40.944Z,4.07
2019-02-07T13:47:31.204Z,3.70
2019-02-07T13:50:40.784Z,6.63
2019-02-07T13:53:31.762Z,9.60
2019-02-07T13:56:22.517Z,5.80
2019-02-07T13:59:12.232Z,4.63
2019-02-07T14:02:09.275Z,6.53
2019-02-07T14:04:55.643Z,6.30
2019-02-07T14:07:44.946Z,6.07
2019-02-07T14:10:49.511Z,5.87
2019-02-07T14:13:51.285Z,6.00
2019-02-07T14:16:41.857Z,7.03
2019-02-07T14:19:33.095Z,4.87
2019-02-07T14:22:27.492Z,5.03
2019-02-07T14:25:15.624Z,5.63
2019-02-07T14:28:06.754Z,6.53
2019-02-07T14:30:56.014Z,5.27
2019-02-07T14:33:45.619Z,4.50
2019-02-07T14:36:48.403Z,5.87
2019-02-07T14:39:42.616Z,5.53
2019-02-07T14:42:33.541Z,5.47
2019-02-07T14:45:44.600Z,4.23
2019-02-07T14:48:24.220Z,4.67
2019-02-07T14:50:57.696Z,6.87
2019-02-07T14:53:29.766Z,4.37
2019-02-07T14:56:01.816Z,6.93
2019-02-07T14:58:33.819Z,9.17
2019-02-07T15:01:06.075Z,4.93
2019-02-07T15:03:56.989Z,4.47
2019-02-07T15:06:29.050Z,5.23
2019-02-07T15:09:01.339Z,7.10
2019-02-07T15:11:33.544Z,5.53
2019-02-07T15:14:06.267Z,5.53
2019-02-07T15:16:38.403Z,4.67
2019-02-07T15:19:12.216Z,3.67
2019-02-07T15:21:44.243Z,4.13
2019-02-07T15:24:16.383Z,6.57
2019-02-07T15:26:48.460Z,4.57
2019-02-07T15:29:20.420Z,5.07
2019-02-07T15:31:52.559Z,5.90
2019-02-07T15:34:24.591Z,5.40
2019-02-07T15:36:56.989Z,6.10
2019-02-07T15:39:29.013Z,4.07
2019-02-07T15:42:01.215Z,5.80
2019-02-07T15:44:33.883Z,5.30
2019-02-07T15:47:08.965Z,6.73
2019-02-07T15:49:41.099Z,4.83
2019-02-07T15:52:13.601Z,4.10
2019-02-07T15:54:45.709Z,4.83
2019-02-07T15:57:17.814Z,3.57
2019-02-07T15:59:56.504Z,3.03
2019-02-07T16:02:51.187Z,4.93
2019-02-07T16:05:23.648Z,6.07
2019-02-07T16:07:57.241Z,4.00
2019-02-07T16:10:31.117Z,3.93
2019-02-07T16:13:03.081Z,3.60
2019-02-07T16:15:35.138Z,5.40
2019-02-07T16:18:07.314Z,5.33
2019-02-07T16:20:48.745Z,5.37
2019-02-07T16:23:13.142Z,4.20
2019-02-07T16:25:47.939Z,5.17
2019-02-07T16:28:20.404Z,5.80
2019-02-07T16:30:52.931Z,5.57
2019-02-07T16:33:25.184Z,4.40
2019-02-07T16:35:57.265Z,3.33
2019-02-07T16:38:41.065Z,4.83
2019-02-07T16:41:13.339Z,3.83
2019-02-07T16:43:45.276Z,6.10
2019-02-07T16:46:17.164Z,3.43
2019-02-07T16:48:49.127Z,5.23
2019-02-07T16:51:21.011Z,5.90
2019-02-07T16:53:56.314Z,6.70
2019-02-07T16:56:28.353Z,5.13
2019-02-07T16:59:03.158Z,5.10
2019-02-07T17:01:35.127Z,5.90
2019-02-07T17:04:08.839Z,5.43
2019-02-07T17:06:40.932Z,8.23
2019-02-07T17:09:20.583Z,3.87
2019-02-07T17:11:53.990Z,5.93
2019-02-07T17:14:26.356Z,4.40
2019-02-07T17:16:58.593Z,4.77
2019-02-07T17:19:30.974Z,5.83
2019-02-07T17:22:02.854Z,3.27
2019-02-07T17:24:37.435Z,6.93
2019-02-07T17:27:12.866Z,3.60
2019-02-07T17:29:44.816Z,3.40
2019-02-07T17:32:17.136Z,3.03
2019-02-07T17:34:51.751Z,4.23
2019-02-07T17:37:25.009Z,3.67
2019-02-07T17:39:58.453Z,3.13
2019-02-07T17:42:30.386Z,3.40
2019-02-07T17:45:02.425Z,2.43
2019-02-07T17:47:35.777Z,3.03
2019-02-07T17:50:13.560Z,5.77
2019-02-07T17:52:45.716Z,3.57
2019-02-07T17:55:19.014Z,4.23
2019-02-07T17:57:50.974Z,5.27
2019-02-07T18:00:29.078Z,4.77
2019-02-07T18:03:01.018Z,4.87
2019-02-07T18:05:33.140Z,6.20
2019-02-07T18:08:05.876Z,4.07
2019-02-07T18:10:37.998Z,4.40
2019-02-07T18:13:10.593Z,4.47
2019-02-07T18:15:42.539Z,4.53
2019-02-07T18:18:14.916Z,3.77
2019-02-07T18:20:47.079Z,5.97
2019-02-07T18:23:19.205Z,4.03
2019-02-07T18:25:51.511Z,5.77
2019-02-07T18:28:23.378Z,6.23
2019-02-07T18:30:55.621Z,4.57
2019-02-07T18:33:27.595Z,5.43
2019-02-07T18:35:59.784Z,5.17
2019-02-07T18:38:31.846Z,3.57
2019-02-07T18:41:06.535Z,5.37
2019-02-07T18:43:41.886Z,4.83
2019-02-07T18:46:13.916Z,3.87
2019-02-07T18:48:46.190Z,3.57
2019-02-07T18:51:18.225Z,6.43
2019-02-07T18:53:50.263Z,3.83
2019-02-07T18:56:22.158Z,6.23
2019-02-07T18:58:54.007Z,4.37
2019-02-07T19:01:26.121Z,5.53
2019-02-07T19:03:57.992Z,3.47
2019-02-07T19:06:29.999Z,4.40
2019-02-07T19:09:03.946Z,4.90
2019-02-07T19:11:35.943Z,5.33
2019-02-07T19:14:08.129Z,3.73
2019-02-07T19:16:39.977Z,4.33
2019-02-07T19:19:12.313Z,4.30
2019-02-07T19:21:56.500Z,3.27
2019-02-07T19:24:19.557Z,4.00
2019-02-07T19:26:51.787Z,7.53
2019-02-07T19:29:24.115Z,2.67
2019-02-07T19:31:56.426Z,3.37
2019-02-07T19:34:28.474Z,2.67
2019-02-07T19:37:00.433Z,3.47
2019-02-07T19:39:34.112Z,3.27
2019-02-07T19:42:06.254Z,2.87
2019-02-07T19:44:38.223Z,3.70
2019-02-07T19:47:10.228Z,5.50
2019-02-07T19:49:42.237Z,5.37
2019-02-07T19:52:14.620Z,2.57
2019-02-07T19:54:49.122Z,3.40
2019-02-07T19:57:21.263Z,6.17
2019-02-07T19:59:53.261Z,2.90
2019-02-07T20:02:26.410Z,4.33
2019-02-07T20:04:58.393Z,3.00
2019-02-07T20:07:30.422Z,3.00
2019-02-07T20:10:05.943Z,2.73
2019-02-07T20:12:37.959Z,4.37
2019-02-07T20:15:16.487Z,3.63
2019-02-07T20:17:48.394Z,5.23
2019-02-07T20:20:20.616Z,3.67
2019-02-07T20:22:52.505Z,8.63
2019-02-07T20:25:24.711Z,1.50
2019-02-07T20:27:56.834Z,3.90
2019-02-07T20:30:34.696Z,3.53
2019-02-07T20:33:08.561Z,1.93
2019-02-07T20:35:40.888Z,3.53
2019-02-07T20:38:13.318Z,5.23
2019-02-07T20:40:47.087Z,4.13
2019-02-07T20:43:20.050Z,6.17
2019-02-07T20:45:52.118Z,3.07
2019-02-07T20:48:23.984Z,4.60
2019-02-07T20:50:55.889Z,6.60
2019-02-07T20:53:27.981Z,4.43
2019-02-07T20:56:00.110Z,4.03
2019-02-07T20:58:32.162Z,3.77
2019-02-07T21:01:04.200Z,4.27
2019-02-07T21:03:36.074Z,2.47
2019-02-07T21:06:09.710Z,3.10
2019-02-07T21:08:42.693Z,4.63
2019-02-07T21:11:14.788Z,4.27
2019-02-07T21:13:46.982Z,3.87
2019-02-07T21:16:18.989Z,3.70
2019-02-07T21:18:50.972Z,2.83
2019-02-07T21:21:22.949Z,2.33
2019-02-07T21:23:54.973Z,9.03
2019-02-07T21:26:27.796Z,2.70
2019-02-07T21:28:59.902Z,2.33
2019-02-07T21:31:32.106Z,3.03
2019-02-07T21:34:04.379Z,2.93
2019-02-07T21:36:36.689Z,3.07
2019-02-07T21:39:11.899Z,4.77
2019-02-07T21:41:43.951Z,2.80
2019-02-07T21:44:15.915Z,2.50
2019-02-07T21:46:47.954Z,3.73
2019-02-07T21:49:19.967Z,3.80
2019-02-07T21:51:52.047Z,3.27
2019-02-07T21:54:24.007Z,2.17
2019-02-07T21:56:55.887Z,2.00
2019-02-07T21:59:28.016Z,3.70
2019-02-07T22:01:59.978Z,3.80
2019-02-07T22:04:31.903Z,3.83
2019-02-07T22:07:05.251Z,2.07
2019-02-07T22:09:37.322Z,2.03
2019-02-07T22:12:09.773Z,3.47
2019-02-07T22:14:41.881Z,3.13
2019-02-07T22:17:13.751Z,2.97
2019-02-07T22:19:45.733Z,3.07
2019-02-07T22:22:17.708Z,2.30
2019-02-07T22:24:49.784Z,2.73
2019-02-07T22:27:21.655Z,3.77
2019-02-07T22:29:53.532Z,2.43
2019-02-07T22:32:26.971Z,3.37
2019-02-07T22:35:00.712Z,6.37
2019-02-07T22:37:32.994Z,3.77
2019-02-07T22:40:07.864Z,4.00
2019-02-07T22:42:47.836Z,4.47
2019-02-07T22:45:17.272Z,3.10
2019-02-07T22:47:49.566Z,3.67
2019-02-07T22:50:26.685Z,3.80
2019-02-07T22:52:59.386Z,2.80
2019-02-07T22:55:31.787Z,3.70
2019-02-07T22:58:03.669Z,3.77
2019-02-07T23:01:19.644Z,4.13
2019-02-07T23:04:00.686Z,2.87
2019-02-07T23:06:32.815Z,2.63
2019-02-07T23:09:11.326Z,2.73
2019-02-07T23:11:43.225Z,1.63
2019-02-07T23:14:15.625Z,6.67
2019-02-07T23:16:47.730Z,3.80
2019-02-07T23:19:19.601Z,2.03
2019-02-07T23:21:51.457Z,3.60
2019-02-07T23:24:23.609Z,3.57
2019-02-07T23:26:55.679Z,2.70
2019-02-07T23:29:38.918Z,1.80
2019-02-07T23:32:10.890Z,2.83
2019-02-07T23:34:42.783Z,2.53
2019-02-07T23:37:15.081Z,3.00
2019-02-07T23:39:47.117Z,2.27
2019-02-07T23:42:19.394Z,3.73
2019-02-07T23:44:51.390Z,4.23
2019-02-07T23:47:23.234Z,4.13
2019-02-07T23:49:55.420Z,1.90
2019-02-07T23:52:27.278Z,5.07
2019-02-07T23:54:59.102Z,5.67
2019-02-07T23:57:31.112Z,2.70
